createdAt,value
2018-07-13T00:00:38.821Z,1005.75
2018-07-13T00:01:20.227Z,1005.78
2018-07-13T00:02:00.760Z,1005.8
2018-07-13T00:02:41.290Z,1005.78
2018-07-13T00:03:21.816Z,1005.8
2018-07-13T00:04:02.354Z,1005.84
2018-07-13T00:04:42.880Z,1005.82
2018-07-13T00:05:23.399Z,1005.83
2018-07-13T00:06:03.942Z,1005.86
2018-07-13T00:06:44.464Z,1005.88
2018-07-13T00:07:24.980Z,1005.86
2018-07-13T00:08:05.514Z,1005.88
2018-07-13T00:08:46.036Z,1005.86
2018-07-13T00:09:26.556Z,1005.79
2018-07-13T00:10:07.084Z,1005.79
2018-07-13T00:10:47.594Z,1005.76
2018-07-13T00:11:28.115Z,1005.71
2018-07-13T00:12:08.646Z,1005.72
2018-07-13T00:12:49.178Z,1005.74
2018-07-13T00:13:29.695Z,1005.75
2018-07-13T00:14:10.216Z,1005.72
2018-07-13T00:14:50.761Z,1005.77
2018-07-13T00:15:31.291Z,1005.77
2018-07-13T00:16:11.794Z,1005.79
2018-07-13T00:16:52.314Z,1005.79
2018-07-13T00:17:32.838Z,1005.8
2018-07-13T00:18:13.367Z,1005.79
2018-07-13T00:18:53.894Z,1005.77
2018-07-13T00:19:34.425Z,1005.85
2018-07-13T00:20:14.960Z,1005.8
2018-07-13T00:20:55.567Z,1005.78
2018-07-13T00:21:36.103Z,1005.77
2018-07-13T00:22:16.977Z,1005.75
2018-07-13T00:22:57.630Z,1005.77
2018-07-13T00:23:38.205Z,1005.75
2018-07-13T00:24:18.828Z,1005.75
2018-07-13T00:24:59.533Z,1005.74
2018-07-13T00:25:39.958Z,1005.79
2018-07-13T00:26:20.624Z,1005.78
2018-07-13T00:27:02.082Z,1005.78
2018-07-13T00:27:42.539Z,1005.78
2018-07-13T00:28:23.065Z,1005.76
2018-07-13T00:29:03.593Z,1005.79
2018-07-13T00:29:44.116Z,1005.82
2018-07-13T00:30:24.668Z,1005.78
2018-07-13T00:31:05.146Z,1005.76
2018-07-13T00:31:45.665Z,1005.86
2018-07-13T00:32:26.201Z,1005.82
2018-07-13T00:33:06.730Z,1005.8
2018-07-13T00:33:47.260Z,1005.8
2018-07-13T00:34:27.775Z,1005.78
2018-07-13T00:35:08.302Z,1005.87
2018-07-13T00:35:48.825Z,1005.84
2018-07-13T00:36:29.344Z,1005.86
2018-07-13T00:37:09.860Z,1005.89
2018-07-13T00:37:50.401Z,1005.88
2018-07-13T00:38:30.922Z,1005.89
2018-07-13T00:39:11.449Z,1005.87
2018-07-13T00:39:51.981Z,1005.86
2018-07-13T00:40:32.510Z,1005.89
2018-07-13T00:41:13.048Z,1005.9
2018-07-13T00:41:53.586Z,1005.9
2018-07-13T00:42:34.119Z,1005.85
2018-07-13T00:43:14.653Z,1005.9
2018-07-13T00:43:55.174Z,1005.89
2018-07-13T00:44:35.701Z,1005.85
2018-07-13T00:45:16.240Z,1005.86
2018-07-13T00:45:56.766Z,1005.86
2018-07-13T00:46:37.303Z,1005.82
2018-07-13T00:47:18.386Z,1005.85
2018-07-13T00:47:58.339Z,1005.81
2018-07-13T00:48:38.880Z,1005.81
2018-07-13T00:49:19.407Z,1005.84
2018-07-13T00:49:59.930Z,1005.83
2018-07-13T00:50:40.432Z,1005.84
2018-07-13T00:51:20.967Z,1005.82
2018-07-13T00:52:01.522Z,1005.8
2018-07-13T00:52:42.031Z,1005.78
2018-07-13T00:53:22.564Z,1005.81
2018-07-13T00:54:03.089Z,1005.8
2018-07-13T00:54:43.619Z,1005.83
2018-07-13T00:55:24.132Z,1005.82
2018-07-13T00:56:04.661Z,1005.81
2018-07-13T00:56:45.183Z,1005.81
2018-07-13T00:57:25.718Z,1005.8
2018-07-13T00:58:06.244Z,1005.84
2018-07-13T00:58:46.757Z,1005.82
2018-07-13T00:59:27.270Z,1005.86
2018-07-13T01:00:07.787Z,1005.88
2018-07-13T01:00:48.318Z,1005.87
2018-07-13T01:01:28.848Z,1005.82
2018-07-13T01:02:09.370Z,1005.86
2018-07-13T01:02:49.879Z,1005.84
2018-07-13T01:03:30.395Z,1005.89
2018-07-13T01:04:10.914Z,1005.86
2018-07-13T01:04:51.431Z,1005.89
2018-07-13T01:05:31.955Z,1005.89
2018-07-13T01:06:12.499Z,1005.91
2018-07-13T01:06:53.034Z,1005.96
2018-07-13T01:07:33.549Z,1005.94
2018-07-13T01:08:14.080Z,1005.9
2018-07-13T01:08:54.602Z,1005.88
2018-07-13T01:09:35.129Z,1005.9
2018-07-13T01:10:15.649Z,1005.89
2018-07-13T01:10:56.157Z,1005.88
2018-07-13T01:11:36.687Z,1005.89
2018-07-13T01:12:17.215Z,1005.88
2018-07-13T01:12:57.747Z,1005.92
2018-07-13T01:13:38.258Z,1005.93
2018-07-13T01:14:18.790Z,1005.9
2018-07-13T01:14:59.306Z,1005.9
2018-07-13T01:15:39.817Z,1005.84
2018-07-13T01:16:20.336Z,1005.9
2018-07-13T01:17:00.863Z,1005.84
2018-07-13T01:17:41.384Z,1005.87
2018-07-13T01:18:21.912Z,1005.87
2018-07-13T01:19:02.443Z,1005.89
2018-07-13T01:19:42.969Z,1005.86
2018-07-13T01:20:23.469Z,1005.85
2018-07-13T01:21:03.988Z,1005.88
2018-07-13T01:21:44.505Z,1005.93
2018-07-13T01:22:25.032Z,1005.92
2018-07-13T01:23:05.546Z,1005.92
2018-07-13T01:23:46.066Z,1005.9
2018-07-13T01:24:26.602Z,1005.94
2018-07-13T01:25:07.125Z,1005.94
2018-07-13T01:25:47.643Z,1005.95
2018-07-13T01:26:28.166Z,1005.93
2018-07-13T01:27:08.689Z,1005.94
2018-07-13T01:27:49.213Z,1005.93
2018-07-13T01:28:29.738Z,1005.95
2018-07-13T01:29:10.267Z,1005.96
2018-07-13T01:29:50.792Z,1005.98
2018-07-13T01:30:31.307Z,1005.96
2018-07-13T01:31:11.837Z,1005.94
2018-07-13T01:31:52.352Z,1005.98
2018-07-13T01:32:32.881Z,1005.93
2018-07-13T01:33:13.410Z,1005.93
2018-07-13T01:33:53.937Z,1005.94
2018-07-13T01:34:34.452Z,1005.95
2018-07-13T01:35:14.965Z,1005.94
2018-07-13T01:35:55.501Z,1005.92
2018-07-13T01:36:36.011Z,1005.87
2018-07-13T01:37:16.527Z,1005.92
2018-07-13T01:37:57.044Z,1005.92
2018-07-13T01:38:37.575Z,1005.92
2018-07-13T01:39:18.086Z,1005.95
2018-07-13T01:39:58.645Z,1005.86
2018-07-13T01:40:39.135Z,1005.93
2018-07-13T01:41:19.668Z,1005.94
2018-07-13T01:42:00.200Z,1005.94
2018-07-13T01:42:40.714Z,1005.96
2018-07-13T01:43:21.236Z,1005.98
2018-07-13T01:44:01.755Z,1005.98
2018-07-13T01:44:42.274Z,1005.98
2018-07-13T01:45:22.792Z,1005.99
2018-07-13T01:46:03.320Z,1006.01
2018-07-13T01:46:43.844Z,1005.99
2018-07-13T01:47:24.364Z,1006.01
2018-07-13T01:48:04.880Z,1006.05
2018-07-13T01:48:45.408Z,1006.01
2018-07-13T01:49:25.929Z,1005.98
2018-07-13T01:50:06.457Z,1005.98
2018-07-13T01:50:46.981Z,1005.98
2018-07-13T01:51:27.505Z,1006
2018-07-13T01:52:08.023Z,1005.99
2018-07-13T01:52:48.558Z,1006
2018-07-13T01:53:29.084Z,1006.01
2018-07-13T01:54:09.591Z,1006
2018-07-13T01:54:50.117Z,1005.99
2018-07-13T01:55:30.688Z,1005.99
2018-07-13T01:56:11.148Z,1005.97
2018-07-13T01:56:51.689Z,1006
2018-07-13T01:57:32.247Z,1006.02
2018-07-13T01:58:14.916Z,1006.02
2018-07-13T01:58:54.915Z,1006.04
2018-07-13T01:59:34.540Z,1006.03
2018-07-13T02:00:15.082Z,1006.05
2018-07-13T02:00:55.606Z,1006.07
2018-07-13T02:01:36.123Z,1006.03
2018-07-13T02:02:16.644Z,1006.1
2018-07-13T02:02:57.168Z,1006.09
2018-07-13T02:03:37.686Z,1006.1
2018-07-13T02:04:18.201Z,1006.09
2018-07-13T02:04:58.719Z,1006.13
2018-07-13T02:05:39.251Z,1006.11
2018-07-13T02:06:19.774Z,1006.1
2018-07-13T02:07:00.293Z,1006.11
2018-07-13T02:07:40.916Z,1006.08
2018-07-13T02:08:21.440Z,1006.07
2018-07-13T02:09:01.967Z,1006.1
2018-07-13T02:09:42.488Z,1006.12
2018-07-13T02:10:23.023Z,1006.1
2018-07-13T02:11:03.536Z,1006.1
2018-07-13T02:11:44.078Z,1006.08
2018-07-13T02:12:24.614Z,1006.09
2018-07-13T02:13:05.156Z,1006.11
2018-07-13T02:13:45.693Z,1006.04
2018-07-13T02:14:26.208Z,1006.04
2018-07-13T02:15:06.734Z,1006.04
2018-07-13T02:15:47.277Z,1006.06
2018-07-13T02:16:27.807Z,1006.01
2018-07-13T02:17:08.334Z,1006.04
2018-07-13T02:17:48.887Z,1006.02
2018-07-13T02:18:29.377Z,1006.04
2018-07-13T02:19:09.908Z,1006.02
2018-07-13T02:19:50.423Z,1006.03
2018-07-13T02:20:30.967Z,1006.04
2018-07-13T02:21:11.494Z,1006.05
2018-07-13T02:21:52.008Z,1006.03
2018-07-13T02:22:32.526Z,1006.04
2018-07-13T02:23:13.054Z,1006.08
2018-07-13T02:23:53.574Z,1006.06
2018-07-13T02:24:34.087Z,1006.08
2018-07-13T02:25:14.611Z,1006.07
2018-07-13T02:25:55.142Z,1006.07
2018-07-13T02:26:35.677Z,1006.06
2018-07-13T02:27:16.202Z,1006.09
2018-07-13T02:27:56.721Z,1006.1
2018-07-13T02:28:37.246Z,1006.08
2018-07-13T02:29:17.767Z,1006.09
2018-07-13T02:29:58.301Z,1006.11
2018-07-13T02:30:38.826Z,1006.14
2018-07-13T02:31:19.359Z,1006.09
2018-07-13T02:31:59.888Z,1006.11
2018-07-13T02:32:40.410Z,1006.13
2018-07-13T02:33:20.941Z,1006.14
2018-07-13T02:34:01.519Z,1006.13
2018-07-13T02:34:41.985Z,1006.11
2018-07-13T02:35:22.510Z,1006.15
2018-07-13T02:36:03.029Z,1006.12
2018-07-13T02:36:43.573Z,1006.16
2018-07-13T02:37:24.071Z,1006.17
2018-07-13T02:38:04.618Z,1006.17
2018-07-13T02:38:45.139Z,1006.2
2018-07-13T02:39:25.652Z,1006.18
2018-07-13T02:40:06.174Z,1006.16
2018-07-13T02:40:46.695Z,1006.17
2018-07-13T02:41:27.223Z,1006.18
2018-07-13T02:42:07.754Z,1006.17
2018-07-13T02:42:48.271Z,1006.23
2018-07-13T02:43:28.788Z,1006.19
2018-07-13T02:44:09.317Z,1006.19
2018-07-13T02:44:49.834Z,1006.2
2018-07-13T02:45:30.355Z,1006.24
2018-07-13T02:46:11.446Z,1006.2
2018-07-13T02:46:51.394Z,1006.19
2018-07-13T02:47:31.931Z,1006.18
2018-07-13T02:48:12.488Z,1006.17
2018-07-13T02:48:53.044Z,1006.17
2018-07-13T02:49:33.560Z,1006.19
2018-07-13T02:50:14.095Z,1006.17
2018-07-13T02:50:54.617Z,1006.11
2018-07-13T02:51:35.140Z,1006.14
2018-07-13T02:52:15.642Z,1006.14
2018-07-13T02:52:56.170Z,1006.19
2018-07-13T02:53:36.694Z,1006.16
2018-07-13T02:54:17.212Z,1006.15
2018-07-13T02:54:57.730Z,1006.17
2018-07-13T02:55:38.254Z,1006.2
2018-07-13T02:56:18.777Z,1006.18
2018-07-13T02:56:59.312Z,1006.22
2018-07-13T02:57:39.815Z,1006.23
2018-07-13T02:58:20.341Z,1006.22
2018-07-13T02:59:00.898Z,1006.27
2018-07-13T02:59:41.430Z,1006.28
2018-07-13T03:00:21.963Z,1006.25
2018-07-13T03:01:02.482Z,1006.26
2018-07-13T03:01:43.006Z,1006.25
2018-07-13T03:02:23.525Z,1006.23
2018-07-13T03:03:04.041Z,1006.26
2018-07-13T03:03:44.570Z,1006.27
2018-07-13T03:04:25.116Z,1006.29
2018-07-13T03:05:05.675Z,1006.3
2018-07-13T03:05:46.180Z,1006.28
2018-07-13T03:06:26.720Z,1006.3
2018-07-13T03:07:07.237Z,1006.27
2018-07-13T03:07:47.764Z,1006.25
2018-07-13T03:08:28.277Z,1006.28
2018-07-13T03:09:08.812Z,1006.28
2018-07-13T03:09:49.344Z,1006.29
2018-07-13T03:10:29.860Z,1006.28
2018-07-13T03:11:10.389Z,1006.29
2018-07-13T03:11:50.907Z,1006.26
2018-07-13T03:12:31.444Z,1006.27
2018-07-13T03:13:11.982Z,1006.3
2018-07-13T03:13:52.503Z,1006.29
2018-07-13T03:14:33.011Z,1006.33
2018-07-13T03:15:13.530Z,1006.35
2018-07-13T03:15:54.052Z,1006.31
2018-07-13T03:16:34.572Z,1006.31
2018-07-13T03:17:15.097Z,1006.31
2018-07-13T03:17:55.624Z,1006.33
2018-07-13T03:18:36.175Z,1006.34
2018-07-13T03:19:16.699Z,1006.29
2018-07-13T03:19:57.228Z,1006.32
2018-07-13T03:20:37.754Z,1006.29
2018-07-13T03:21:18.301Z,1006.35
2018-07-13T03:21:58.866Z,1006.3
2018-07-13T03:22:39.361Z,1006.33
2018-07-13T03:23:19.889Z,1006.34
2018-07-13T03:24:00.418Z,1006.33
2018-07-13T03:24:40.925Z,1006.35
2018-07-13T03:25:21.979Z,1006.4
2018-07-13T03:26:02.520Z,1006.36
2018-07-13T03:26:43.049Z,1006.39
2018-07-13T03:27:23.585Z,1006.33
2018-07-13T03:28:04.129Z,1006.33
2018-07-13T03:28:44.657Z,1006.34
2018-07-13T03:29:25.188Z,1006.34
2018-07-13T03:30:05.708Z,1006.35
2018-07-13T03:30:46.233Z,1006.32
2018-07-13T03:31:26.747Z,1006.34
2018-07-13T03:32:07.295Z,1006.31
2018-07-13T03:32:47.806Z,1006.33
2018-07-13T03:33:28.323Z,1006.37
2018-07-13T03:34:08.887Z,1006.33
2018-07-13T03:34:49.419Z,1006.34
2018-07-13T03:35:29.948Z,1006.32
2018-07-13T03:36:10.469Z,1006.34
2018-07-13T03:36:50.987Z,1006.34
2018-07-13T03:37:31.513Z,1006.31
2018-07-13T03:38:12.033Z,1006.34
2018-07-13T03:38:52.546Z,1006.34
2018-07-13T03:39:33.067Z,1006.35
2018-07-13T03:40:13.589Z,1006.41
2018-07-13T03:40:54.110Z,1006.35
2018-07-13T03:41:34.637Z,1006.39
2018-07-13T03:42:15.172Z,1006.38
2018-07-13T03:42:55.696Z,1006.37
2018-07-13T03:43:36.215Z,1006.37
2018-07-13T03:44:16.757Z,1006.38
2018-07-13T03:44:57.291Z,1006.35
2018-07-13T03:45:37.830Z,1006.39
2018-07-13T03:46:18.372Z,1006.38
2018-07-13T03:46:58.900Z,1006.41
2018-07-13T03:47:39.431Z,1006.44
2018-07-13T03:48:19.983Z,1006.39
2018-07-13T03:49:00.500Z,1006.36
2018-07-13T03:49:41.025Z,1006.38
2018-07-13T03:50:21.536Z,1006.4
2018-07-13T03:51:02.051Z,1006.36
2018-07-13T03:51:42.587Z,1006.42
2018-07-13T03:52:23.122Z,1006.45
2018-07-13T03:53:03.649Z,1006.46
2018-07-13T03:53:44.171Z,1006.48
2018-07-13T03:54:24.701Z,1006.45
2018-07-13T03:55:05.236Z,1006.5
2018-07-13T03:55:45.740Z,1006.44
2018-07-13T03:56:26.261Z,1006.5
2018-07-13T03:57:06.799Z,1006.51
2018-07-13T03:57:47.322Z,1006.52
2018-07-13T03:58:27.838Z,1006.5
2018-07-13T03:59:08.360Z,1006.5
2018-07-13T03:59:48.890Z,1006.5
2018-07-13T04:00:29.480Z,1006.51
2018-07-13T04:01:09.936Z,1006.52
2018-07-13T04:01:50.461Z,1006.5
2018-07-13T04:02:31.010Z,1006.56
2018-07-13T04:03:11.550Z,1006.55
2018-07-13T04:03:52.150Z,1006.55
2018-07-13T04:04:32.625Z,1006.51
2018-07-13T04:05:13.176Z,1006.53
2018-07-13T04:05:53.696Z,1006.51
2018-07-13T04:06:34.406Z,1006.58
2018-07-13T04:07:14.757Z,1006.52
2018-07-13T04:07:55.292Z,1006.57
2018-07-13T04:08:35.813Z,1006.56
2018-07-13T04:09:16.387Z,1006.57
2018-07-13T04:09:56.861Z,1006.55
2018-07-13T04:10:37.386Z,1006.57
2018-07-13T04:11:17.900Z,1006.58
2018-07-13T04:11:58.443Z,1006.59
2018-07-13T04:12:38.955Z,1006.54
2018-07-13T04:13:19.506Z,1006.54
2018-07-13T04:14:00.024Z,1006.54
2018-07-13T04:14:40.574Z,1006.53
2018-07-13T04:15:21.062Z,1006.57
2018-07-13T04:16:01.586Z,1006.56
2018-07-13T04:16:42.104Z,1006.57
2018-07-13T04:17:22.621Z,1006.59
2018-07-13T04:18:03.140Z,1006.57
2018-07-13T04:18:43.660Z,1006.61
2018-07-13T04:19:24.176Z,1006.56
2018-07-13T04:20:04.704Z,1006.54
2018-07-13T04:20:45.240Z,1006.56
2018-07-13T04:21:25.767Z,1006.51
2018-07-13T04:22:06.301Z,1006.58
2018-07-13T04:22:46.813Z,1006.58
2018-07-13T04:23:27.341Z,1006.54
2018-07-13T04:24:07.861Z,1006.59
2018-07-13T04:24:48.390Z,1006.56
2018-07-13T04:25:28.927Z,1006.58
2018-07-13T04:26:09.456Z,1006.54
2018-07-13T04:26:50.014Z,1006.59
2018-07-13T04:27:30.540Z,1006.59
2018-07-13T04:28:11.070Z,1006.57
2018-07-13T04:28:51.768Z,1006.53
2018-07-13T04:29:32.170Z,1006.57
2018-07-13T04:30:12.685Z,1006.6
2018-07-13T04:30:53.204Z,1006.52
2018-07-13T04:31:33.737Z,1006.56
2018-07-13T04:32:14.262Z,1006.6
2018-07-13T04:32:54.783Z,1006.56
2018-07-13T04:33:35.306Z,1006.58
2018-07-13T04:34:15.873Z,1006.56
2018-07-13T04:34:56.359Z,1006.53
2018-07-13T04:35:36.885Z,1006.54
2018-07-13T04:36:17.421Z,1006.51
2018-07-13T04:36:57.948Z,1006.54
2018-07-13T04:37:38.497Z,1006.52
2018-07-13T04:38:19.016Z,1006.54
2018-07-13T04:38:59.533Z,1006.56
2018-07-13T04:39:40.066Z,1006.52
2018-07-13T04:40:20.578Z,1006.57
2018-07-13T04:41:01.168Z,1006.58
2018-07-13T04:41:41.628Z,1006.53
2018-07-13T04:42:22.176Z,1006.58
2018-07-13T04:43:02.706Z,1006.56
2018-07-13T04:43:43.233Z,1006.59
2018-07-13T04:44:23.737Z,1006.58
2018-07-13T04:45:04.257Z,1006.58
2018-07-13T04:45:44.815Z,1006.58
2018-07-13T04:46:25.348Z,1006.59
2018-07-13T04:47:05.883Z,1006.57
2018-07-13T04:47:46.410Z,1006.58
2018-07-13T04:48:26.935Z,1006.58
2018-07-13T04:49:07.449Z,1006.57
2018-07-13T04:49:47.966Z,1006.56
2018-07-13T04:50:28.496Z,1006.56
2018-07-13T04:51:09.024Z,1006.56
2018-07-13T04:51:49.543Z,1006.51
2018-07-13T04:52:30.057Z,1006.48
2018-07-13T04:53:10.607Z,1006.57
2018-07-13T04:53:51.113Z,1006.49
2018-07-13T04:54:31.645Z,1006.53
2018-07-13T04:55:12.156Z,1006.51
2018-07-13T04:55:52.675Z,1006.54
2018-07-13T04:56:33.196Z,1006.53
2018-07-13T04:57:13.715Z,1006.57
2018-07-13T04:57:54.246Z,1006.53
2018-07-13T04:58:34.764Z,1006.55
2018-07-13T04:59:15.289Z,1006.54
2018-07-13T04:59:55.815Z,1006.59
2018-07-13T05:00:36.396Z,1006.56
2018-07-13T05:01:16.854Z,1006.61
2018-07-13T05:01:57.403Z,1006.6
2018-07-13T05:02:37.927Z,1006.58
2018-07-13T05:03:18.438Z,1006.57
2018-07-13T05:03:58.961Z,1006.55
2018-07-13T05:04:39.494Z,1006.58
2018-07-13T05:05:20.005Z,1006.61
2018-07-13T05:06:00.540Z,1006.56
2018-07-13T05:06:41.065Z,1006.55
2018-07-13T05:07:21.608Z,1006.58
2018-07-13T05:08:02.135Z,1006.56
2018-07-13T05:08:42.642Z,1006.55
2018-07-13T05:09:23.172Z,1006.57
2018-07-13T05:10:03.714Z,1006.58
2018-07-13T05:10:44.251Z,1006.51
2018-07-13T05:11:24.764Z,1006.56
2018-07-13T05:12:05.299Z,1006.53
2018-07-13T05:12:45.833Z,1006.58
2018-07-13T05:13:26.360Z,1006.56
2018-07-13T05:14:06.889Z,1006.55
2018-07-13T05:14:47.398Z,1006.53
2018-07-13T05:15:27.936Z,1006.54
2018-07-13T05:16:08.489Z,1006.53
2018-07-13T05:16:49.027Z,1006.51
2018-07-13T05:17:29.537Z,1006.53
2018-07-13T05:18:10.084Z,1006.51
2018-07-13T05:18:50.605Z,1006.47
2018-07-13T05:19:31.144Z,1006.5
2018-07-13T05:20:11.669Z,1006.49
2018-07-13T05:20:52.250Z,1006.47
2018-07-13T05:21:32.779Z,1006.48
2018-07-13T05:22:13.308Z,1006.48
2018-07-13T05:22:53.840Z,1006.47
2018-07-13T05:23:34.364Z,1006.49
2018-07-13T05:24:14.899Z,1006.54
2018-07-13T05:24:55.453Z,1006.51
2018-07-13T05:25:35.967Z,1006.5
2018-07-13T05:26:16.499Z,1006.5
2018-07-13T05:26:57.027Z,1006.53
2018-07-13T05:27:37.551Z,1006.5
2018-07-13T05:28:18.085Z,1006.47
2018-07-13T05:28:58.605Z,1006.5
2018-07-13T05:29:39.286Z,1006.5
2018-07-13T05:30:19.806Z,1006.49
2018-07-13T05:31:00.319Z,1006.48
2018-07-13T05:31:40.850Z,1006.49
2018-07-13T05:32:21.372Z,1006.52
2018-07-13T05:33:01.906Z,1006.5
2018-07-13T05:33:42.442Z,1006.49
2018-07-13T05:34:22.967Z,1006.51
2018-07-13T05:35:03.492Z,1006.52
2018-07-13T05:35:44.053Z,1006.51
2018-07-13T05:36:24.602Z,1006.53
2018-07-13T05:37:05.134Z,1006.54
2018-07-13T05:37:45.655Z,1006.55
2018-07-13T05:38:26.300Z,1006.57
2018-07-13T05:39:06.716Z,1006.56
2018-07-13T05:39:47.238Z,1006.58
2018-07-13T05:40:27.770Z,1006.55
2018-07-13T05:41:08.304Z,1006.53
2018-07-13T05:41:48.846Z,1006.55
2018-07-13T05:42:29.376Z,1006.53
2018-07-13T05:43:09.910Z,1006.55
2018-07-13T05:43:50.444Z,1006.53
2018-07-13T05:44:30.974Z,1006.56
2018-07-13T05:45:11.515Z,1006.59
2018-07-13T05:45:52.044Z,1006.56
2018-07-13T05:46:32.639Z,1006.57
2018-07-13T05:47:13.168Z,1006.61
2018-07-13T05:47:53.764Z,1006.62
2018-07-13T05:48:34.293Z,1006.56
2018-07-13T05:49:14.839Z,1006.58
2018-07-13T05:49:55.364Z,1006.62
2018-07-13T05:50:35.895Z,1006.6
2018-07-13T05:51:16.430Z,1006.58
2018-07-13T05:51:56.951Z,1006.58
2018-07-13T05:52:37.488Z,1006.56
2018-07-13T05:53:18.012Z,1006.63
2018-07-13T05:53:58.522Z,1006.64
2018-07-13T05:54:39.042Z,1006.63
2018-07-13T05:55:19.563Z,1006.64
2018-07-13T05:56:00.116Z,1006.67
2018-07-13T05:56:40.643Z,1006.71
2018-07-13T05:57:21.783Z,1006.68
2018-07-13T05:58:02.295Z,1006.66
2018-07-13T05:58:42.826Z,1006.67
2018-07-13T05:59:23.362Z,1006.7
2018-07-13T06:00:03.885Z,1006.67
2018-07-13T06:00:44.423Z,1006.65
2018-07-13T06:01:24.953Z,1006.7
2018-07-13T06:02:05.496Z,1006.72
2018-07-13T06:02:46.003Z,1006.7
2018-07-13T06:03:26.558Z,1006.73
2018-07-13T06:04:07.076Z,1006.75
2018-07-13T06:04:47.598Z,1006.73
2018-07-13T06:05:28.121Z,1006.71
2018-07-13T06:06:08.657Z,1006.67
2018-07-13T06:06:49.167Z,1006.71
2018-07-13T06:07:29.699Z,1006.67
2018-07-13T06:08:10.240Z,1006.67
2018-07-13T06:08:50.745Z,1006.72
2018-07-13T06:09:31.272Z,1006.72
2018-07-13T06:10:11.765Z,1006.69
2018-07-13T06:10:52.288Z,1006.7
2018-07-13T06:11:32.826Z,1006.7
2018-07-13T06:12:13.351Z,1006.68
2018-07-13T06:12:53.884Z,1006.71
2018-07-13T06:13:34.404Z,1006.71
2018-07-13T06:14:14.945Z,1006.73
2018-07-13T06:14:55.513Z,1006.78
2018-07-13T06:15:36.031Z,1006.78
2018-07-13T06:16:16.545Z,1006.71
2018-07-13T06:16:57.067Z,1006.77
2018-07-13T06:17:37.605Z,1006.79
2018-07-13T06:18:18.143Z,1006.79
2018-07-13T06:18:58.651Z,1006.73
2018-07-13T06:19:39.182Z,1006.81
2018-07-13T06:20:19.789Z,1006.83
2018-07-13T06:21:00.243Z,1006.78
2018-07-13T06:21:40.797Z,1006.79
2018-07-13T06:22:21.302Z,1006.76
2018-07-13T06:23:01.838Z,1006.78
2018-07-13T06:23:42.329Z,1006.81
2018-07-13T06:24:22.886Z,1006.81
2018-07-13T06:25:03.471Z,1006.85
2018-07-13T06:25:43.952Z,1006.83
2018-07-13T06:26:24.465Z,1006.82
2018-07-13T06:27:05.012Z,1006.85
2018-07-13T06:27:45.590Z,1006.85
2018-07-13T06:28:26.059Z,1006.86
2018-07-13T06:29:06.594Z,1006.82
2018-07-13T06:29:47.200Z,1006.83
2018-07-13T06:30:27.730Z,1006.87
2018-07-13T06:31:08.253Z,1006.79
2018-07-13T06:31:48.784Z,1006.83
2018-07-13T06:32:29.324Z,1006.88
2018-07-13T06:33:09.824Z,1006.82
2018-07-13T06:33:50.421Z,1006.82
2018-07-13T06:34:30.868Z,1006.86
2018-07-13T06:35:11.355Z,1006.83
2018-07-13T06:35:51.864Z,1006.86
2018-07-13T06:36:32.746Z,1006.83
2018-07-13T06:37:13.243Z,1006.86
2018-07-13T06:37:53.730Z,1006.84
2018-07-13T06:38:34.228Z,1006.83
2018-07-13T06:39:14.710Z,1006.84
2018-07-13T06:39:55.239Z,1006.84
2018-07-13T06:40:35.768Z,1006.86
2018-07-13T06:41:16.425Z,1006.91
2018-07-13T06:41:56.946Z,1006.89
2018-07-13T06:42:37.483Z,1006.88
2018-07-13T06:43:18.002Z,1006.92
2018-07-13T06:43:58.538Z,1006.92
2018-07-13T06:44:39.078Z,1006.91
2018-07-13T06:45:19.576Z,1006.93
2018-07-13T06:46:00.089Z,1006.88
2018-07-13T06:46:40.614Z,1006.91
2018-07-13T06:47:21.127Z,1006.93
2018-07-13T06:48:01.669Z,1006.91
2018-07-13T06:48:42.150Z,1006.93
2018-07-13T06:49:22.672Z,1006.92
2018-07-13T06:50:03.197Z,1006.95
2018-07-13T06:50:43.774Z,1006.96
2018-07-13T06:51:24.326Z,1006.98
2018-07-13T06:52:04.774Z,1006.95
2018-07-13T06:52:45.279Z,1006.96
2018-07-13T06:53:25.796Z,1006.97
2018-07-13T06:54:06.352Z,1006.98
2018-07-13T06:54:46.878Z,1006.98
2018-07-13T06:55:27.431Z,1006.93
2018-07-13T06:56:07.953Z,1006.97
2018-07-13T06:56:48.568Z,1006.96
2018-07-13T06:57:29.025Z,1006.99
2018-07-13T06:58:09.722Z,1006.98
2018-07-13T06:58:51.996Z,1006.98
2018-07-13T06:59:31.411Z,1006.97
2018-07-13T07:00:11.972Z,1006.98
2018-07-13T07:00:52.534Z,1006.98
2018-07-13T07:01:33.050Z,1006.99
2018-07-13T07:02:14.169Z,1007
2018-07-13T07:02:54.806Z,1007.02
2018-07-13T07:03:35.285Z,1007.03
2018-07-13T07:04:15.773Z,1007.04
2018-07-13T07:04:56.271Z,1007.03
2018-07-13T07:05:36.787Z,1007.01
2018-07-13T07:06:17.333Z,1007.07
2018-07-13T07:06:57.872Z,1007.06
2018-07-13T07:07:38.417Z,1007.06
2018-07-13T07:08:18.908Z,1007.07
2018-07-13T07:08:59.460Z,1007.05
2018-07-13T07:09:39.897Z,1007.04
2018-07-13T07:10:20.458Z,1007
2018-07-13T07:11:00.898Z,1007
2018-07-13T07:11:41.409Z,1007.07
2018-07-13T07:12:21.935Z,1007.04
2018-07-13T07:13:02.469Z,1007.09
2018-07-13T07:13:42.992Z,1007.1
2018-07-13T07:14:23.537Z,1007.11
2018-07-13T07:15:04.068Z,1007.11
2018-07-13T07:15:44.599Z,1007.09
2018-07-13T07:16:25.114Z,1007.12
2018-07-13T07:17:05.631Z,1007.1
2018-07-13T07:19:10.413Z,1007.07
2018-07-13T07:19:50.922Z,1007.05
2018-07-13T07:20:31.442Z,1007.08
2018-07-13T07:21:11.984Z,1007.05
2018-07-13T07:21:52.580Z,1007.07
2018-07-13T07:22:33.134Z,1007.03
2018-07-13T07:23:13.650Z,1007.02
2018-07-13T07:23:54.170Z,1006.96
2018-07-13T07:24:34.801Z,1006.98
2018-07-13T07:25:15.217Z,1007.02
2018-07-13T07:25:55.734Z,1007
2018-07-13T07:26:36.279Z,1007.02
2018-07-13T07:27:16.795Z,1006.96
2018-07-13T07:27:57.339Z,1006.97
2018-07-13T07:28:37.868Z,1006.96
2018-07-13T07:29:18.389Z,1006.99
2018-07-13T07:29:58.915Z,1006.97
2018-07-13T07:30:39.500Z,1006.94
2018-07-13T07:31:20.028Z,1006.95
2018-07-13T07:32:00.572Z,1006.97
2018-07-13T07:32:41.152Z,1006.92
2018-07-13T07:33:21.618Z,1006.91
2018-07-13T07:34:02.191Z,1006.95
2018-07-13T07:34:42.654Z,1006.86
2018-07-13T07:35:23.194Z,1006.89
2018-07-13T07:36:03.675Z,1006.88
2018-07-13T07:36:44.172Z,1006.84
2018-07-13T07:37:24.655Z,1006.87
2018-07-13T07:38:05.197Z,1006.9
2018-07-13T07:38:46.183Z,1006.88
2018-07-13T07:39:26.681Z,1006.91
2018-07-13T07:40:07.173Z,1006.87
2018-07-13T07:40:47.724Z,1006.86
2018-07-13T07:41:28.258Z,1006.87
2018-07-13T07:42:08.776Z,1006.88
2018-07-13T07:42:49.342Z,1006.93
2018-07-13T07:43:30.100Z,1006.91
2018-07-13T07:44:10.685Z,1006.92
2018-07-13T07:44:51.163Z,1006.9
2018-07-13T07:45:31.687Z,1006.91
2018-07-13T07:46:12.246Z,1006.87
2018-07-13T07:46:52.796Z,1006.88
2018-07-13T07:47:33.344Z,1006.9
2018-07-13T07:48:13.848Z,1006.88
2018-07-13T07:48:54.387Z,1006.91
2018-07-13T07:49:35.006Z,1006.89
2018-07-13T07:50:15.550Z,1006.88
2018-07-13T07:50:56.092Z,1006.9
2018-07-13T07:51:36.619Z,1006.85
2018-07-13T07:52:17.169Z,1006.88
2018-07-13T07:52:57.700Z,1006.83
2018-07-13T07:53:38.224Z,1006.88
2018-07-13T07:54:18.740Z,1006.89
2018-07-13T07:54:59.270Z,1006.88
2018-07-13T07:55:39.745Z,1006.84
2018-07-13T07:56:20.295Z,1006.83
2018-07-13T07:57:00.790Z,1006.87
2018-07-13T07:57:41.867Z,1006.86
2018-07-13T07:58:22.398Z,1006.88
2018-07-13T07:59:02.898Z,1006.82
2018-07-13T07:59:43.387Z,1006.83
2018-07-13T08:00:23.931Z,1006.77
2018-07-13T08:01:04.380Z,1006.84
2018-07-13T08:01:44.954Z,1006.82
2018-07-13T08:02:25.450Z,1006.84
2018-07-13T08:03:05.997Z,1006.81
2018-07-13T08:03:46.522Z,1006.86
2018-07-13T08:04:27.018Z,1006.87
2018-07-13T08:05:07.556Z,1006.86
2018-07-13T08:05:48.061Z,1006.84
2018-07-13T08:06:28.688Z,1006.85
2018-07-13T08:07:09.533Z,1006.85
2018-07-13T08:07:49.639Z,1006.81
2018-07-13T08:08:30.099Z,1006.86
2018-07-13T08:09:10.707Z,1006.85
2018-07-13T08:09:51.169Z,1006.84
2018-07-13T08:10:31.706Z,1006.83
2018-07-13T08:11:12.213Z,1006.86
2018-07-13T08:11:52.710Z,1006.86
2018-07-13T08:12:33.232Z,1006.84
2018-07-13T08:13:13.839Z,1006.88
2018-07-13T08:13:54.416Z,1006.85